Time;durP1;ratioP1;P1;durP2;ratioP2;P2;SDS_P1;SDS_P2;PMS_P1;PMS_P2;Temp;Humidity;BMP_temperature;BMP_pressure;BME280_temperature;BME280_humidity;BME280_pressure;Samples;Min_cycle;Max_cycle;Signal;HPM_P1;HPM_P2
2023/09/11 00:00:23;;;;;;;;;;;;;;;;;;5015279;28;20433;-68
2023/09/11 00:02:49;;;;;;;;;;;;;;;;;;5014983;28;20003;-69
2023/09/11 00:05:14;;;;;;;;;;;;;;;;;;5014830;28;19905;-68
2023/09/11 00:07:40;;;;;;;;;;;;;;;;;;5013612;28;19912;-69
2023/09/11 00:10:06;;;;;;;;;;;;;;;;;;5015022;28;19910;-69
2023/09/11 00:12:32;;;;;;;;;;;;;;;;;;5014588;28;20435;-68
2023/09/11 00:14:58;;;;;;;;;;;;;;;;;;5014541;28;19960;-69
2023/09/11 00:17:24;;;;;;;;;;;;;;;;;;5014624;28;19932;-68
2023/09/11 00:19:50;;;;;;;;;;;;;;;;;;5014672;28;19909;-69
2023/09/11 00:22:16;;;;;;;;;;;;;;;;;;5014516;28;19912;-68
2023/09/11 00:24:41;;;;;;;;;;;;;;;;;;5014237;28;19909;-68
2023/09/11 00:27:07;;;;;;;;;;;;;;;;;;5014546;28;19952;-68
2023/09/11 00:29:34;;;;;;;;;;;;;;;;;;5014348;28;19956;-68
2023/09/11 00:32:00;;;;;;;;;;;;;;;;;;5014554;28;19905;-68
2023/09/11 00:34:26;;;;;;;;;;;;;;;;;;5014124;28;19913;-68
2023/09/11 00:36:52;;;;;;;;;;;;;;;;;;5014468;28;20331;-68
2023/09/11 00:39:18;;;;;;;;;;;;;;;;;;5012943;28;20261;-68
2023/09/11 00:41:44;;;;;;;;;;;;;;;;;;5014263;28;19912;-68
2023/09/11 00:44:09;;;;;;;;;;;;;;;;;;5013844;28;19913;-68
2023/09/11 00:46:35;;;;;;;;;;;;;;;;;;5012759;28;19999;-68
2023/09/11 00:49:01;;;;;;;;;;;;;;;;;;5014034;28;19906;-68
2023/09/11 00:51:27;;;;;;;;;;;;;;;;;;5013954;28;20004;-69
2023/09/11 00:53:53;;;;;;;;;;;;;;;;;;5013539;28;19936;-68
2023/09/11 00:56:19;;;;;;;;;;;;;;;;;;5013981;28;19916;-69
2023/09/11 00:58:45;;;;;;;;;;;;;;;;;;5013811;28;20423;-69
2023/09/11 01:01:11;;;;;;;;;;;;;;;;;;5013949;28;20392;-69
2023/09/11 01:03:37;;;;;;;;;;;;;;;;;;5013550;28;19906;-69
2023/09/11 01:06:03;;;;;;;;;;;;;;;;;;5013696;28;19909;-72
2023/09/11 01:08:29;;;;;;;;;;;;;;;;;;5012506;28;19906;-70
2023/09/11 01:10:56;;;;;;;;;;;;;;;;;;5013697;28;19951;-68
2023/09/11 01:13:22;;;;;;;;;;;;;;;;;;5013152;28;19936;-68
2023/09/11 01:15:48;;;;;;;;;;;;;;;;;;5013572;28;19953;-68
2023/09/11 01:18:14;;;;;;;;;;;;;;;;;;5013661;28;19996;-68
2023/09/11 01:20:40;;;;;;;;;;;;;;;;;;5013445;28;20440;-68
2023/09/11 01:23:08;;;;;;;;;;;;;;;;;;5013213;28;19912;-68
2023/09/11 01:25:34;;;;;;;;;;;;;;;;;;5013294;28;19941;-69
2023/09/11 01:27:59;;;;;;;;;;;;;;;;;;5013364;28;20044;-68
2023/09/11 01:30:25;;;;;;;;;;;;;;;;;;5013168;28;19909;-69
2023/09/11 01:32:51;;;;;;;;;;;;;;;;;;5013151;28;19996;-68
2023/09/11 01:35:17;;;;;;;;;;;;;;;;;;5013064;28;20441;-68
2023/09/11 01:37:43;;;;;;;;;;;;;;;;;;5013168;28;19905;-68
2023/09/11 01:40:09;;;;;;;;;;;;;;;;;;5011902;28;20398;-68
2023/09/11 01:42:35;;;;;;;;;;;;;;;;;;5012812;28;19956;-68
2023/09/11 01:45:01;;;;;;;;;;;;;;;;;;5012840;28;20368;-69
2023/09/11 01:47:27;;;;;;;;;;;;;;;;;;5012875;28;19905;-69
2023/09/11 01:49:53;;;;;;;;;;;;;;;;;;5013007;28;19909;-68
2023/09/11 01:52:18;;;;;;;;;;;;;;;;;;5012621;28;19909;-68
2023/09/11 01:54:44;;;;;;;;;;;;;;;;;;5012674;28;20388;-68
2023/09/11 01:57:10;;;;;;;;;;;;;;;;;;5012441;28;19906;-68
2023/09/11 01:59:36;;;;;;;;;;;;;;;;;;5012712;28;20349;-69
2023/09/11 02:02:02;;;;;;;;;;;;;;;;;;5011467;28;19959;-69
2023/09/11 02:04:28;;;;;;;;;;;;;;;;;;5012518;28;19906;-69
2023/09/11 02:06:54;;;;;;;;;;;;;;;;;;5011160;28;20386;-69
2023/09/11 02:09:20;;;;;;;;;;;;;;;;;;5012530;28;20420;-69
2023/09/11 02:11:46;;;;;;;;;;;;;;;;;;5012598;28;19991;-69
2023/09/11 02:14:12;;;;;;;;;;;;;;;;;;5012182;28;19905;-68
2023/09/11 02:16:38;;;;;;;;;;;;;;;;;;5012488;28;19905;-69
2023/09/11 02:19:04;;;;;;;;;;;;;;;;;;5012420;28;19948;-68
2023/09/11 02:21:30;;;;;;;;;;;;;;;;;;5012375;28;19909;-70
2023/09/11 02:23:56;;;;;;;;;;;;;;;;;;5012251;28;19905;-70
2023/09/11 02:26:22;;;;;;;;;;;;;;;;;;5012547;28;19952;-71
2023/09/11 02:28:47;;;;;;;;;;;;;;;;;;5011903;28;19981;-71
2023/09/11 02:31:14;;;;;;;;;;;;;;;;;;5012781;28;19912;-70
2023/09/11 02:33:40;;;;;;;;;;;;;;;;;;5012030;28;20437;-71
2023/09/11 02:36:05;;;;;;;;;;;;;;;;;;5014580;28;20000;-70
2023/09/11 02:38:31;;;;;;;;;;;;;;;;;;5015905;28;19905;-70
2023/09/11 02:40:57;;;;;;;;;;;;;;;;;;5015289;28;20003;-72
2023/09/11 02:43:23;;;;;;;;;;;;;;;;;;5014167;28;19906;-71
2023/09/11 02:45:49;;;;;;;;;;;;;;;;;;5012179;28;19994;-68
2023/09/11 02:48:15;;;;;;;;;;;;;;;;;;5012020;28;19905;-69
2023/09/11 02:50:41;;;;;;;;;;;;;;;;;;5011850;28;19909;-68
2023/09/11 02:53:08;;;;;;;;;;;;;;;;;;5011563;28;19921;-68
2023/09/11 02:55:34;;;;;;;;;;;;;;;;;;5011802;28;20550;-68
2023/09/11 02:58:00;;;;;;;;;;;;;;;;;;5012088;28;19906;-68
2023/09/11 03:00:26;;;;;;;;;;;;;;;;;;5012063;28;19960;-68
2023/09/11 03:02:52;;;;;;;;;;;;;;;;;;5011914;28;19940;-68
2023/09/11 03:05:18;;;;;;;;;;;;;;;;;;5011754;28;20373;-68
2023/09/11 03:07:44;;;;;;;;;;;;;;;;;;5010515;28;19905;-68
2023/09/11 03:10:10;;;;;;;;;;;;;;;;;;5013360;28;20292;-70
2023/09/11 03:12:36;;;;;;;;;;;;;;;;;;5015761;28;19905;-69
2023/09/11 03:15:03;;;;;;;;;;;;;;;;;;5016012;28;19912;-69
2023/09/11 03:17:30;;;;;;;;;;;;;;;;;;5015882;28;20340;-69
2023/09/11 03:19:56;;;;;;;;;;;;;;;;;;5015947;28;20353;-67
2023/09/11 03:22:22;;;;;;;;;;;;;;;;;;5015608;28;19940;-68
2023/09/11 03:24:48;;;;;;;;;;;;;;;;;;5014118;28;19913;-68
2023/09/11 03:27:14;;;;;;;;;;;;;;;;;;5015521;28;19906;-69
2023/09/11 03:29:40;;;;;;;;;;;;;;;;;;5015933;28;20008;-70
2023/09/11 03:32:06;;;;;;;;;;;;;;;;;;5015609;28;19967;-69
2023/09/11 03:34:32;;;;;;;;;;;;;;;;;;5013974;28;19924;-70
2023/09/11 03:36:58;;;;;;;;;;;;;;;;;;5017340;28;20292;-69
2023/09/11 03:39:24;;;;;;;;;;;;;;;;;;5017198;28;19916;-70
2023/09/11 03:41:50;;;;;;;;;;;;;;;;;;5019015;28;19958;-70
2023/09/11 03:44:16;;;;;;;;;;;;;;;;;;5016820;28;19905;-69
2023/09/11 03:46:42;;;;;;;;;;;;;;;;;;5014515;28;19906;-70
2023/09/11 03:49:07;;;;;;;;;;;;;;;;;;5015651;28;19905;-70
2023/09/11 03:51:33;;;;;;;;;;;;;;;;;;5015698;28;19906;-70
2023/09/11 03:53:59;;;;;;;;;;;;;;;;;;5014722;28;20431;-70
2023/09/11 03:56:25;;;;;;;;;;;;;;;;;;5015153;28;20000;-70
2023/09/11 03:58:51;;;;;;;;;;;;;;;;;;5015348;28;20004;-71
2023/09/11 04:01:17;;;;;;;;;;;;;;;;;;5014083;28;20404;-70
2023/09/11 04:03:43;;;;;;;;;;;;;;;;;;5015817;28;19941;-70
2023/09/11 04:06:09;;;;;;;;;;;;;;;;;;5014261;28;20315;-70
2023/09/11 04:08:35;;;;;;;;;;;;;;;;;;5014463;28;19963;-69
2023/09/11 04:11:01;;;;;;;;;;;;;;;;;;5014714;28;20367;-70
2023/09/11 04:13:27;;;;;;;;;;;;;;;;;;5012808;28;19911;-70
2023/09/11 04:15:53;;;;;;;;;;;;;;;;;;5014629;28;20375;-69
2023/09/11 04:18:18;;;;;;;;;;;;;;;;;;5014489;28;19905;-68
2023/09/11 04:20:44;;;;;;;;;;;;;;;;;;5014277;28;19925;-69
2023/09/11 04:23:10;;;;;;;;;;;;;;;;;;5014179;28;19909;-68
2023/09/11 04:25:36;;;;;;;;;;;;;;;;;;5014447;28;19905;-68
2023/09/11 04:28:02;;;;;;;;;;;;;;;;;;5014357;28;19952;-69
2023/09/11 04:30:28;;;;;;;;;;;;;;;;;;5014249;28;19963;-68
2023/09/11 04:32:54;;;;;;;;;;;;;;;;;;5014191;28;19905;-67
2023/09/11 04:35:20;;;;;;;;;;;;;;;;;;5012632;28;19916;-69
2023/09/11 04:37:46;;;;;;;;;;;;;;;;;;5014074;28;19906;-70
2023/09/11 04:40:11;;;;;;;;;;;;;;;;;;5014220;28;19956;-71
2023/09/11 04:42:37;;;;;;;;;;;;;;;;;;5012792;28;19905;-70
2023/09/11 04:45:03;;;;;;;;;;;;;;;;;;5012676;28;19906;-71
2023/09/11 04:47:32;;;;;;;;;;;;;;;;;;5013822;28;19913;-71
2023/09/11 04:49:58;;;;;;;;;;;;;;;;;;5013737;28;19917;-70
2023/09/11 04:52:24;;;;;;;;;;;;;;;;;;5013601;28;19906;-71
2023/09/11 04:54:50;;;;;;;;;;;;;;;;;;5013783;28;19913;-72
2023/09/11 04:57:16;;;;;;;;;;;;;;;;;;5010990;28;19928;-72
2023/09/11 04:59:42;;;;;;;;;;;;;;;;;;5013756;28;19911;-73
2023/09/11 05:02:08;;;;;;;;;;;;;;;;;;5014052;28;19941;-73
2023/09/11 05:04:34;;;;;;;;;;;;;;;;;;5013694;28;19909;-73
2023/09/11 05:06:59;;;;;;;;;;;;;;;;;;5012516;28;19909;-74
2023/09/11 05:09:25;;;;;;;;;;;;;;;;;;5012145;28;20403;-73
2023/09/11 05:11:51;;;;;;;;;;;;;;;;;;5013579;28;19996;-73
2023/09/11 05:14:17;;;;;;;;;;;;;;;;;;5013287;28;19906;-72
2023/09/11 05:16:43;;;;;;;;;;;;;;;;;;5013464;28;20376;-73
2023/09/11 05:19:09;;;;;;;;;;;;;;;;;;5013235;28;19912;-72
2023/09/11 05:21:36;;;;;;;;;;;;;;;;;;5013110;28;20284;-73
2023/09/11 05:24:02;;;;;;;;;;;;;;;;;;5011365;28;19905;-73
2023/09/11 05:26:28;;;;;;;;;;;;;;;;;;5013208;28;19906;-73
2023/09/11 05:28:54;;;;;;;;;;;;;;;;;;5012792;28;20262;-73
2023/09/11 05:31:20;;;;;;;;;;;;;;;;;;5013201;28;19909;-73
2023/09/11 05:33:46;;;;;;;;;;;;;;;;;;5012111;28;20002;-72
2023/09/11 05:36:12;;;;;;;;;;;;;;;;;;5012935;28;19906;-73
2023/09/11 05:38:38;;;;;;;;;;;;;;;;;;5011500;28;19905;-72
2023/09/11 05:41:04;;;;;;;;;;;;;;;;;;5013358;28;20341;-72
2023/09/11 05:43:30;;;;;;;;;;;;;;;;;;5003963;28;20008;-70
2023/09/11 05:45:55;;;;;;;;;;;;;;;;;;5006866;28;19984;-69
2023/09/11 05:48:21;;;;;;;;;;;;;;;;;;5012915;28;19905;-69
2023/09/11 05:50:47;;;;;;;;;;;;;;;;;;5012708;28;20435;-69
2023/09/11 05:53:13;;;;;;;;;;;;;;;;;;5022405;22;20092;-69
2023/09/11 05:55:39;;;;;;;;;;;;;;;;;;5005141;28;19917;-69
2023/09/11 05:58:05;;;;;;;;;;;;;;;;;;5012167;28;20372;-70
2023/09/11 06:00:31;;;;;;;;;;;;;;;;;;5012439;28;19915;-70
2023/09/11 06:02:57;;;;;;;;;;;;;;;;;;5012389;28;19906;-69
2023/09/11 06:05:23;;;;;;;;;;;;;;;;;;5012122;28;19927;-68
2023/09/11 06:07:49;;;;;;;;;;;;;;;;;;5009270;28;19909;-69
2023/09/11 06:10:15;;;;;;;;;;;;;;;;;;5012285;28;19924;-70
2023/09/11 06:12:41;;;;;;;;;;;;;;;;;;5012437;28;19912;-69
2023/09/11 06:15:07;;;;;;;;;;;;;;;;;;5011916;28;19905;-69
2023/09/11 06:17:33;;;;;;;;;;;;;;;;;;5012136;28;19913;-70
2023/09/11 06:19:59;;;;;;;;;;;;;;;;;;5012203;28;19916;-71
2023/09/11 06:22:25;;;;;;;;;;;;;;;;;;5011636;28;20343;-72
2023/09/11 06:24:51;;;;;;;;;;;;;;;;;;5010349;28;19906;-70
2023/09/11 06:27:17;;;;;;;;;;;;;;;;;;5010881;28;19906;-70
2023/09/11 06:29:44;;;;;;;;;;;;;;;;;;5010447;28;19995;-70
2023/09/11 06:32:12;;;;;;;;;;;;;;;;;;5010528;28;19905;-69
2023/09/11 06:34:38;;;;;;;;;;;;;;;;;;5009994;28;19905;-69
2023/09/11 06:37:06;;;;;;;;;;;;;;;;;;5010529;28;19905;-70
2023/09/11 06:39:32;;;;;;;;;;;;;;;;;;5011658;28;19905;-70
2023/09/11 06:41:58;;;;;;;;;;;;;;;;;;5012173;28;19912;-70
2023/09/11 06:44:24;;;;;;;;;;;;;;;;;;5011616;28;20422;-70
2023/09/11 06:46:50;;;;;;;;;;;;;;;;;;5012036;28;19905;-70
2023/09/11 06:49:16;;;;;;;;;;;;;;;;;;5011984;28;19906;-70
2023/09/11 06:51:42;;;;;;;;;;;;;;;;;;5012153;28;19912;-70
2023/09/11 06:54:09;;;;;;;;;;;;;;;;;;5011612;28;19913;-70
2023/09/11 06:56:35;;;;;;;;;;;;;;;;;;5008883;28;19913;-71
2023/09/11 06:59:01;;;;;;;;;;;;;;;;;;5009999;28;20450;-69
2023/09/11 07:01:27;;;;;;;;;;;;;;;;;;5010114;28;19912;-70
2023/09/11 07:03:53;;;;;;;;;;;;;;;;;;5010324;28;19905;-69
2023/09/11 07:06:19;;;;;;;;;;;;;;;;;;5010257;28;20288;-72
2023/09/11 07:08:47;;;;;;;;;;;;;;;;;;5008897;28;19909;-70
2023/09/11 07:11:13;;;;;;;;;;;;;;;;;;5010220;28;19913;-69
2023/09/11 07:13:39;;;;;;;;;;;;;;;;;;5010099;28;19906;-70
2023/09/11 07:16:05;;;;;;;;;;;;;;;;;;5011417;28;20331;-70
2023/09/11 07:18:31;;;;;;;;;;;;;;;;;;5010435;28;19912;-69
2023/09/11 07:20:57;;;;;;;;;;;;;;;;;;5010408;28;20284;-71
2023/09/11 07:23:24;;;;;;;;;;;;;;;;;;5011422;28;19905;-69
2023/09/11 07:25:55;;;;;;;;;;;;;;;;;;5011667;28;20336;-70
2023/09/11 07:28:23;;;;;;;;;;;;;;;;;;5011831;28;20440;-71
2023/09/11 07:30:49;;;;;;;;;;;;;;;;;;5011496;28;20367;-70
2023/09/11 07:33:14;;;;;;;;;;;;;;;;;;5011488;28;20012;-70
2023/09/11 07:35:40;;;;;;;;;;;;;;;;;;5011333;28;19948;-70
2023/09/11 07:38:07;;;;;;;;;;;;;;;;;;5011784;28;19913;-70
2023/09/11 07:40:33;;;;;;;;;;;;;;;;;;5011687;28;19905;-70
2023/09/11 07:42:58;;;;;;;;;;;;;;;;;;5011263;28;19905;-69
2023/09/11 07:45:24;;;;;;;;;;;;;;;;;;5011441;28;20004;-71
2023/09/11 07:47:51;;;;;;;;;;;;;;;;;;5011488;28;20356;-72
2023/09/11 07:50:16;;;;;;;;;;;;;;;;;;5011737;28;19916;-70
2023/09/11 07:52:42;;;;;;;;;;;;;;;;;;5011776;28;19933;-70
2023/09/11 07:55:08;;;;;;;;;;;;;;;;;;5011169;28;19913;-70
2023/09/11 07:57:34;;;;;;;;;;;;;;;;;;5015014;28;19909;-71
2023/09/11 08:00:04;;;;;;;;;;;;;;;;;;5015023;28;19952;-70
2023/09/11 08:02:30;;;;;;;;;;;;;;;;;;5015013;28;20000;-70
2023/09/11 08:04:56;;;;;;;;;;;;;;;;;;5014623;28;19936;-69
2023/09/11 08:07:22;;;;;;;;;;;;;;;;;;5014957;28;20383;-70
2023/09/11 08:09:48;;;;;;;;;;;;;;;;;;5014788;28;20292;-70
2023/09/11 08:12:15;;;;;;;;;;;;;;;;;;5014835;28;19910;-70
2023/09/11 08:14:41;;;;;;;;;;;;;;;;;;5014488;28;20371;-69
2023/09/11 08:17:07;;;;;;;;;;;;;;;;;;5014938;28;19912;-71
2023/09/11 08:19:33;;;;;;;;;;;;;;;;;;5014918;28;19909;-70
2023/09/11 08:21:59;;;;;;;;;;;;;;;;;;5014912;28;19905;-70
2023/09/11 08:24:25;;;;;;;;;;;;;;;;;;5014597;28;20021;-70
2023/09/11 08:26:50;;;;;;;;;;;;;;;;;;5013573;28;20351;-70
2023/09/11 08:29:16;;;;;;;;;;;;;;;;;;5014468;28;19960;-70
2023/09/11 08:31:42;;;;;;;;;;;;;;;;;;5014432;28;19905;-70
2023/09/11 08:34:08;;;;;;;;;;;;;;;;;;5014063;28;19905;-70
2023/09/11 08:36:34;;;;;;;;;;;;;;;;;;5014182;28;20008;-70
2023/09/11 08:39:00;;;;;;;;;;;;;;;;;;5014368;28;20371;-70
2023/09/11 08:41:26;;;;;;;;;;;;;;;;;;5014314;28;20693;-71
2023/09/11 08:43:52;;;;;;;;;;;;;;;;;;5012837;28;19905;-69
2023/09/11 08:46:18;;;;;;;;;;;;;;;;;;5014592;28;19905;-70
2023/09/11 08:48:44;;;;;;;;;;;;;;;;;;5013148;28;20334;-70
2023/09/11 08:51:10;;;;;;;;;;;;;;;;;;5014265;28;19909;-70
2023/09/11 08:53:36;;;;;;;;;;;;;;;;;;5014131;28;19920;-70
2023/09/11 08:56:02;;;;;;;;;;;;;;;;;;5014834;28;20300;-71
2023/09/11 08:58:28;;;;;;;;;;;;;;;;;;5014207;28;19912;-71
2023/09/11 09:00:54;;;;;;;;;;;;;;;;;;5014101;28;19905;-71
2023/09/11 09:03:20;;;;;;;;;;;;;;;;;;5013808;28;20296;-71
2023/09/11 09:05:46;;;;;;;;;;;;;;;;;;5013959;28;19909;-71
2023/09/11 09:08:15;;;;;;;;;;;;;;;;;;5012864;28;20391;-70
2023/09/11 09:10:41;;;;;;;;;;;;;;;;;;5013843;28;20296;-70
2023/09/11 09:13:07;;;;;;;;;;;;;;;;;;5013626;28;19917;-70
2023/09/11 09:15:33;;;;;;;;;;;;;;;;;;5012445;28;19905;-70
2023/09/11 09:18:00;;;;;;;;;;;;;;;;;;5013674;28;20363;-69
2023/09/11 09:20:25;;;;;;;;;;;;;;;;;;5013610;28;19909;-69
2023/09/11 09:22:51;;;;;;;;;;;;;;;;;;5013996;28;19901;-70
2023/09/11 09:25:17;;;;;;;;;;;;;;;;;;5013358;28;19906;-69
2023/09/11 09:27:43;;;;;;;;;;;;;;;;;;5013524;28;19902;-69
2023/09/11 09:30:10;;;;;;;;;;;;;;;;;;5013547;28;20296;-68
2023/09/11 09:32:36;;;;;;;;;;;;;;;;;;5013259;28;19906;-70
2023/09/11 09:35:02;;;;;;;;;;;;;;;;;;5013098;28;19939;-69
2023/09/11 09:37:28;;;;;;;;;;;;;;;;;;5012090;28;19905;-69
2023/09/11 09:39:54;;;;;;;;;;;;;;;;;;5013401;28;20385;-69
2023/09/11 09:42:20;;;;;;;;;;;;;;;;;;5013182;28;19905;-70
2023/09/11 09:44:46;;;;;;;;;;;;;;;;;;5012829;28;20411;-70
2023/09/11 09:47:13;;;;;;;;;;;;;;;;;;5013452;28;19995;-70
2023/09/11 09:49:39;;;;;;;;;;;;;;;;;;5013166;28;19909;-70
2023/09/11 09:52:05;;;;;;;;;;;;;;;;;;5013304;28;19909;-70
2023/09/11 09:54:31;;;;;;;;;;;;;;;;;;5012548;28;20373;-70
2023/09/11 09:56:57;;;;;;;;;;;;;;;;;;5013106;28;19905;-70
2023/09/11 09:59:23;;;;;;;;;;;;;;;;;;5013278;28;19906;-70
2023/09/11 10:01:50;;;;;;;;;;;;;;;;;;5012930;28;19906;-68
2023/09/11 10:04:16;;;;;;;;;;;;;;;;;;5012340;28;19956;-69
2023/09/11 10:06:42;;;;;;;;;;;;;;;;;;5012425;28;19905;-70
2023/09/11 10:09:08;;;;;;;;;;;;;;;;;;5012515;28;19940;-69
2023/09/11 10:11:34;;;;;;;;;;;;;;;;;;5012353;28;19917;-70
2023/09/11 10:13:59;;;;;;;;;;;;;;;;;;5012339;28;19905;-69
2023/09/11 10:16:25;;;;;;;;;;;;;;;;;;5012520;28;19909;-69
2023/09/11 10:18:51;;;;;;;;;;;;;;;;;;5012398;28;20296;-69
2023/09/11 10:21:18;;;;;;;;;;;;;;;;;;5012528;28;20280;-70
2023/09/11 10:23:44;;;;;;;;;;;;;;;;;;5012037;28;19958;-70
2023/09/11 10:26:10;;;;;;;;;;;;;;;;;;5012292;28;20003;-70
2023/09/11 10:28:36;;;;;;;;;;;;;;;;;;5012215;28;19916;-70
2023/09/11 10:31:01;;;;;;;;;;;;;;;;;;5012252;28;19976;-69
2023/09/11 10:33:27;;;;;;;;;;;;;;;;;;5011948;28;19906;-69
2023/09/11 10:35:54;;;;;;;;;;;;;;;;;;5012202;28;19951;-70
2023/09/11 10:38:19;;;;;;;;;;;;;;;;;;5012218;28;19906;-69
2023/09/11 10:40:45;;;;;;;;;;;;;;;;;;5012150;28;20460;-70
2023/09/11 10:43:11;;;;;;;;;;;;;;;;;;5012234;28;19906;-69
2023/09/11 10:45:37;;;;;;;;;;;;;;;;;;5012211;28;19909;-69
2023/09/11 10:48:03;;;;;;;;;;;;;;;;;;5005493;28;19910;-69
2023/09/11 10:50:29;;;;;;;;;;;;;;;;;;4992481;28;19910;-69
2023/09/11 10:52:56;;;;;;;;;;;;;;;;;;4992161;28;20388;-69
2023/09/11 10:55:22;;;;;;;;;;;;;;;;;;4992330;28;19916;-69
2023/09/11 10:57:48;;;;;;;;;;;;;;;;;;4992521;28;19905;-69
2023/09/11 11:00:13;;;;;;;;;;;;;;;;;;4992312;28;20021;-69
2023/09/11 11:02:39;;;;;;;;;;;;;;;;;;4992081;28;19928;-69
2023/09/11 11:05:05;;;;;;;;;;;;;;;;;;4992087;28;19910;-69
2023/09/11 11:07:31;;;;;;;;;;;;;;;;;;4990400;28;19920;-70
2023/09/11 11:09:57;;;;;;;;;;;;;;;;;;4990322;28;19914;-69
2023/09/11 11:12:23;;;;;;;;;;;;;;;;;;4992272;28;20048;-70
2023/09/11 11:14:49;;;;;;;;;;;;;;;;;;4992016;28;19905;-70
2023/09/11 11:17:15;;;;;;;;;;;;;;;;;;4992526;28;19909;-68
2023/09/11 11:19:41;;;;;;;;;;;;;;;;;;4992239;28;20599;-69
2023/09/11 11:22:07;;;;;;;;;;;;;;;;;;4992117;28;19906;-70
2023/09/11 11:24:36;;;;;;;;;;;;;;;;;;4992086;28;19929;-69
2023/09/11 11:27:03;;;;;;;;;;;;;;;;;;4992283;28;20377;-69
2023/09/11 11:29:29;;;;;;;;;;;;;;;;;;4992304;28;19909;-70
2023/09/11 11:31:55;;;;;;;;;;;;;;;;;;4994935;28;19906;-69
2023/09/11 11:34:20;;;;;;;;;;;;;;;;;;4995698;28;19909;-69
2023/09/11 11:36:46;;;;;;;;;;;;;;;;;;4995782;28;20369;-69
2023/09/11 11:39:12;;;;;;;;;;;;;;;;;;4995884;28;19996;-69
2023/09/11 11:41:39;;;;;;;;;;;;;;;;;;4995811;28;19906;-69
2023/09/11 11:44:05;;;;;;;;;;;;;;;;;;4994193;28;19910;-68
2023/09/11 11:46:32;;;;;;;;;;;;;;;;;;4995797;28;20273;-69
2023/09/11 11:48:58;;;;;;;;;;;;;;;;;;4995657;28;20293;-68
2023/09/11 11:51:24;;;;;;;;;;;;;;;;;;4995388;28;19910;-68
2023/09/11 11:53:50;;;;;;;;;;;;;;;;;;5009554;23;19922;-71
2023/09/11 11:56:16;;;;;;;;;;;;;;;;;;4995193;28;19924;-71
2023/09/11 11:58:42;;;;;;;;;;;;;;;;;;4995505;28;19905;-71
2023/09/11 12:01:07;;;;;;;;;;;;;;;;;;4995512;28;20340;-71
2023/09/11 12:03:33;;;;;;;;;;;;;;;;;;4995179;28;19968;-71
2023/09/11 12:05:59;;;;;;;;;;;;;;;;;;4993771;28;19960;-71
2023/09/11 12:08:25;;;;;;;;;;;;;;;;;;4995316;28;19992;-72
2023/09/11 12:10:51;;;;;;;;;;;;;;;;;;4995295;28;20436;-72
2023/09/11 12:13:17;;;;;;;;;;;;;;;;;;4994964;28;19976;-71
2023/09/11 12:15:43;;;;;;;;;;;;;;;;;;4995180;28;20412;-71
2023/09/11 12:18:09;;;;;;;;;;;;;;;;;;4995081;28;19956;-72
2023/09/11 12:20:35;;;;;;;;;;;;;;;;;;4995057;28;19905;-71
2023/09/11 12:23:01;;;;;;;;;;;;;;;;;;4994984;28;19936;-70
2023/09/11 12:25:27;;;;;;;;;;;;;;;;;;4995134;28;20008;-71
2023/09/11 12:27:52;;;;;;;;;;;;;;;;;;4994936;28;20385;-72
2023/09/11 12:30:18;;;;;;;;;;;;;;;;;;5002361;28;19910;-72
2023/09/11 12:32:44;;;;;;;;;;;;;;;;;;4993822;28;20004;-72
2023/09/11 12:35:10;;;;;;;;;;;;;;;;;;4994318;28;20325;-72
2023/09/11 12:37:36;;;;;;;;;;;;;;;;;;4992473;28;20033;-72
2023/09/11 12:40:08;;;;;;;;;;;;;;;;;;4983994;28;19906;-71
2023/09/11 12:42:34;;;;;;;;;;;;;;;;;;4990043;28;20297;-71
2023/09/11 12:45:00;;;;;;;;;;;;;;;;;;4975155;28;19906;-71
2023/09/11 12:47:27;;;;;;;;;;;;;;;;;;4990834;28;20361;-71
2023/09/11 12:49:52;;;;;;;;;;;;;;;;;;4994690;28;20377;-72
2023/09/11 12:52:18;;;;;;;;;;;;;;;;;;4994514;28;19913;-72
2023/09/11 12:54:44;;;;;;;;;;;;;;;;;;4988884;28;19914;-72
2023/09/11 12:57:12;;;;;;;;;;;;;;;;;;4974782;28;20322;-71
2023/09/11 12:59:38;;;;;;;;;;;;;;;;;;4974673;28;19906;-71
2023/09/11 13:02:06;;;;;;;;;;;;;;;;;;4974823;28;19952;-71
2023/09/11 13:04:32;;;;;;;;;;;;;;;;;;4974922;28;20461;-69
2023/09/11 13:06:58;;;;;;;;;;;;;;;;;;4974819;28;19995;-71
2023/09/11 13:09:24;;;;;;;;;;;;;;;;;;4974630;28;19906;-70
2023/09/11 13:11:49;;;;;;;;;;;;;;;;;;4979960;28;19906;-71
2023/09/11 13:14:15;;;;;;;;;;;;;;;;;;4993846;28;19913;-71
2023/09/11 13:16:41;;;;;;;;;;;;;;;;;;4993965;28;19913;-71
2023/09/11 13:19:07;;;;;;;;;;;;;;;;;;4993677;28;19913;-72
2023/09/11 13:21:33;;;;;;;;;;;;;;;;;;4993769;28;19905;-72
2023/09/11 13:23:59;;;;;;;;;;;;;;;;;;4993570;28;19912;-72
2023/09/11 13:26:25;;;;;;;;;;;;;;;;;;4994038;28;19909;-72
2023/09/11 13:28:51;;;;;;;;;;;;;;;;;;4993851;28;19960;-72
2023/09/11 13:31:17;;;;;;;;;;;;;;;;;;4993508;28;19960;-72
2023/09/11 13:33:42;;;;;;;;;;;;;;;;;;4993296;28;19933;-72
2023/09/11 13:36:08;;;;;;;;;;;;;;;;;;4993737;28;20004;-73
2023/09/11 13:38:34;;;;;;;;;;;;;;;;;;4993402;28;19906;-72
2023/09/11 13:41:00;;;;;;;;;;;;;;;;;;4993309;28;19906;-72
2023/09/11 13:43:26;;;;;;;;;;;;;;;;;;4993223;28;19913;-71
2023/09/11 13:45:52;;;;;;;;;;;;;;;;;;4993448;28;19906;-72
2023/09/11 13:48:21;;;;;;;;;;;;;;;;;;4992033;28;19910;-72
2023/09/11 13:50:47;;;;;;;;;;;;;;;;;;4993323;28;19941;-71
2023/09/11 13:53:12;;;;;;;;;;;;;;;;;;4992683;28;20308;-70
2023/09/11 13:55:41;;;;;;;;;;;;;;;;;;4992816;28;19968;-71
2023/09/11 13:58:09;;;;;;;;;;;;;;;;;;4992987;28;19971;-71
2023/09/11 14:00:35;;;;;;;;;;;;;;;;;;4993122;28;19913;-72
2023/09/11 14:03:01;;;;;;;;;;;;;;;;;;4992910;28;19910;-70
2023/09/11 14:05:26;;;;;;;;;;;;;;;;;;4993632;28;19916;-71
2023/09/11 14:07:52;;;;;;;;;;;;;;;;;;4993224;28;19906;-70
2023/09/11 14:10:18;;;;;;;;;;;;;;;;;;4993032;28;19956;-70
2023/09/11 14:12:44;;;;;;;;;;;;;;;;;;4992722;28;19906;-70
2023/09/11 14:15:11;;;;;;;;;;;;;;;;;;4992365;28;19905;-70
2023/09/11 14:17:37;;;;;;;;;;;;;;;;;;4992782;28;19910;-71
2023/09/11 14:20:03;;;;;;;;;;;;;;;;;;4992973;28;19912;-71
2023/09/11 14:22:29;;;;;;;;;;;;;;;;;;4991463;28;19927;-71
2023/09/11 14:24:55;;;;;;;;;;;;;;;;;;4992421;28;20258;-70
2023/09/11 14:27:21;;;;;;;;;;;;;;;;;;4992708;28;19906;-70
2023/09/11 14:29:47;;;;;;;;;;;;;;;;;;4991116;28;19941;-71
2023/09/11 14:32:13;;;;;;;;;;;;;;;;;;4992881;28;19968;-71
2023/09/11 14:34:39;;;;;;;;;;;;;;;;;;4992283;28;19906;-72
2023/09/11 14:37:05;;;;;;;;;;;;;;;;;;4992517;28;20404;-73
2023/09/11 14:39:31;;;;;;;;;;;;;;;;;;4992531;28;19905;-71
2023/09/11 14:41:57;;;;;;;;;;;;;;;;;;4992482;28;20013;-71
2023/09/11 14:44:22;;;;;;;;;;;;;;;;;;4993089;28;20512;-70
2023/09/11 14:46:48;;;;;;;;;;;;;;;;;;4992695;28;19912;-70
2023/09/11 14:49:14;;;;;;;;;;;;;;;;;;4992294;28;19902;-70
2023/09/11 14:51:40;;;;;;;;;;;;;;;;;;4992296;28;19917;-71
2023/09/11 14:54:06;;;;;;;;;;;;;;;;;;4992001;28;20357;-71
2023/09/11 14:56:32;;;;;;;;;;;;;;;;;;4992298;28;19906;-70
2023/09/11 14:58:58;;;;;;;;;;;;;;;;;;4992065;28;19968;-70
2023/09/11 15:01:24;;;;;;;;;;;;;;;;;;4983634;28;19909;-71
2023/09/11 15:03:50;;;;;;;;;;;;;;;;;;4990751;28;20411;-71
2023/09/11 15:06:16;;;;;;;;;;;;;;;;;;4994939;28;20380;-70
2023/09/11 15:08:42;;;;;;;;;;;;;;;;;;4996539;28;20365;-71
2023/09/11 15:11:08;;;;;;;;;;;;;;;;;;4996280;28;19909;-71
2023/09/11 15:13:34;;;;;;;;;;;;;;;;;;4995275;28;20047;-70
2023/09/11 15:16:00;;;;;;;;;;;;;;;;;;4977237;28;19914;-71
2023/09/11 15:18:25;;;;;;;;;;;;;;;;;;4976751;28;19926;-71
2023/09/11 15:20:51;;;;;;;;;;;;;;;;;;4976653;28;19913;-72
2023/09/11 15:23:17;;;;;;;;;;;;;;;;;;4976420;28;20123;-71
2023/09/11 15:25:43;;;;;;;;;;;;;;;;;;4976421;28;19913;-70
2023/09/11 15:28:10;;;;;;;;;;;;;;;;;;4976443;28;19906;-71
2023/09/11 15:30:37;;;;;;;;;;;;;;;;;;4980942;28;20487;-71
2023/09/11 15:33:03;;;;;;;;;;;;;;;;;;4995751;28;19905;-73
2023/09/11 15:35:29;;;;;;;;;;;;;;;;;;4995634;28;20362;-71
2023/09/11 15:37:55;;;;;;;;;;;;;;;;;;4996077;28;19906;-73
2023/09/11 15:40:21;;;;;;;;;;;;;;;;;;4995851;28;19914;-72
2023/09/11 15:42:48;;;;;;;;;;;;;;;;;;4995403;28;19916;-71
2023/09/11 15:45:14;;;;;;;;;;;;;;;;;;4975314;28;19910;-71
2023/09/11 15:47:40;;;;;;;;;;;;;;;;;;4976308;28;20396;-70
2023/09/11 15:50:06;;;;;;;;;;;;;;;;;;4976213;28;19921;-72
2023/09/11 15:52:32;;;;;;;;;;;;;;;;;;4976123;28;19906;-71
2023/09/11 15:54:58;;;;;;;;;;;;;;;;;;4975645;28;19914;-72
2023/09/11 15:57:24;;;;;;;;;;;;;;;;;;4975926;28;20027;-71
2023/09/11 15:59:50;;;;;;;;;;;;;;;;;;4975735;28;19913;-71
2023/09/11 16:02:16;;;;;;;;;;;;;;;;;;4975937;28;19910;-71
2023/09/11 16:04:44;;;;;;;;;;;;;;;;;;4975539;28;19925;-70
2023/09/11 16:07:10;;;;;;;;;;;;;;;;;;4975666;28;19913;-70
2023/09/11 16:09:36;;;;;;;;;;;;;;;;;;4975730;28;19910;-72
2023/09/11 16:12:02;;;;;;;;;;;;;;;;;;4974471;28;19956;-72
2023/09/11 16:14:28;;;;;;;;;;;;;;;;;;4975319;28;20348;-71
2023/09/11 16:16:54;;;;;;;;;;;;;;;;;;4975179;28;20289;-72
2023/09/11 16:19:21;;;;;;;;;;;;;;;;;;4975606;28;19906;-71
2023/09/11 16:21:47;;;;;;;;;;;;;;;;;;4976292;28;19957;-70
2023/09/11 16:24:13;;;;;;;;;;;;;;;;;;4994698;28;19909;-72
2023/09/11 16:26:39;;;;;;;;;;;;;;;;;;4994929;28;19906;-71
2023/09/11 16:29:05;;;;;;;;;;;;;;;;;;4994922;28;20448;-70
2023/09/11 16:31:30;;;;;;;;;;;;;;;;;;4994840;28;19909;-70
2023/09/11 16:33:56;;;;;;;;;;;;;;;;;;4994231;28;19918;-70
2023/09/11 16:36:22;;;;;;;;;;;;;;;;;;4994645;28;20396;-71